createdAt,value
2022-10-16T00:00:15.595Z,3.37
2022-10-16T00:03:03.379Z,3.40
2022-10-16T00:05:51.624Z,2.60
2022-10-16T00:08:38.717Z,2.97
2022-10-16T00:11:27.731Z,3.20
2022-10-16T00:14:16.778Z,3.10
2022-10-16T00:17:03.509Z,3.13
2022-10-16T00:19:50.343Z,2.70
2022-10-16T00:22:38.678Z,3.03
2022-10-16T00:25:25.375Z,3.10
2022-10-16T00:28:12.444Z,2.57
2022-10-16T00:30:59.524Z,2.93
2022-10-16T00:33:46.021Z,2.83
2022-10-16T00:36:33.247Z,3.13
2022-10-16T00:39:21.187Z,2.83
2022-10-16T00:42:07.771Z,3.20
2022-10-16T00:44:57.820Z,3.10
2022-10-16T00:47:50.100Z,3.17
2022-10-16T00:50:36.883Z,3.30
2022-10-16T00:53:24.181Z,3.17
2022-10-16T00:56:12.982Z,2.80
2022-10-16T00:59:01.870Z,2.83
2022-10-16T01:01:48.513Z,3.30
2022-10-16T01:04:39.014Z,3.03
2022-10-16T01:07:38.809Z,3.20
2022-10-16T01:10:33.033Z,3.40
2022-10-16T01:13:26.977Z,3.20
2022-10-16T01:16:18.123Z,2.87
2022-10-16T01:19:11.929Z,3.13
2022-10-16T01:22:00.538Z,3.07
2022-10-16T01:24:50.978Z,2.50
2022-10-16T01:27:44.441Z,3.20
2022-10-16T01:30:35.169Z,2.80
2022-10-16T01:33:26.680Z,2.40
2022-10-16T01:36:19.746Z,2.93
2022-10-16T01:39:08.993Z,3.03
2022-10-16T01:42:02.466Z,2.53
2022-10-16T01:44:52.066Z,2.70
2022-10-16T01:47:39.858Z,2.70
2022-10-16T01:50:27.008Z,2.57
2022-10-16T01:53:16.767Z,2.77
2022-10-16T01:56:06.130Z,2.70
2022-10-16T01:58:57.463Z,2.77
2022-10-16T02:01:49.347Z,2.73
2022-10-16T02:04:39.759Z,2.80
2022-10-16T02:07:26.714Z,2.70
2022-10-16T02:10:13.393Z,2.37
2022-10-16T02:13:05.701Z,2.50
2022-10-16T02:15:52.622Z,2.60
2022-10-16T02:18:44.685Z,2.40
2022-10-16T02:21:39.418Z,2.40
2022-10-16T02:24:35.439Z,2.43
2022-10-16T02:27:29.726Z,2.70
2022-10-16T02:30:25.183Z,2.30
2022-10-16T02:33:15.287Z,2.67
2022-10-16T02:36:03.392Z,2.40
2022-10-16T02:38:50.083Z,2.10
2022-10-16T02:41:37.042Z,2.63
2022-10-16T02:44:25.299Z,2.30
2022-10-16T02:47:13.726Z,2.43
2022-10-16T02:50:01.015Z,2.67
2022-10-16T02:52:48.887Z,2.63
2022-10-16T02:55:35.739Z,2.17
2022-10-16T02:58:22.683Z,2.40
2022-10-16T03:01:09.870Z,2.43
2022-10-16T03:03:56.883Z,2.87
2022-10-16T03:06:43.564Z,2.37
2022-10-16T03:09:31.691Z,2.10
2022-10-16T03:12:18.221Z,2.60
2022-10-16T03:15:06.263Z,1.93
2022-10-16T03:17:53.104Z,2.30
2022-10-16T03:20:39.739Z,2.50
2022-10-16T03:23:26.737Z,2.30
2022-10-16T03:26:14.925Z,2.30
2022-10-16T03:29:03.692Z,2.40
2022-10-16T03:31:50.750Z,2.37
2022-10-16T03:34:37.319Z,2.10
2022-10-16T03:37:24.395Z,2.13
2022-10-16T03:40:12.289Z,2.27
2022-10-16T03:43:00.350Z,2.43
2022-10-16T03:45:46.883Z,2.40
2022-10-16T03:48:33.756Z,2.20
2022-10-16T03:51:20.294Z,2.13
2022-10-16T03:54:07.149Z,2.10
2022-10-16T03:56:53.926Z,2.33
2022-10-16T03:59:42.184Z,2.70
2022-10-16T04:02:28.970Z,2.20
2022-10-16T04:05:15.995Z,2.40
2022-10-16T04:08:02.583Z,2.30
2022-10-16T04:10:49.278Z,1.93
2022-10-16T04:13:35.902Z,2.20
2022-10-16T04:16:24.042Z,1.93
2022-10-16T04:19:11.630Z,2.73
2022-10-16T04:21:58.157Z,2.33
2022-10-16T04:24:44.945Z,2.20
2022-10-16T04:27:32.377Z,2.53
2022-10-16T04:30:19.315Z,1.83
2022-10-16T04:33:07.526Z,2.00
2022-10-16T04:35:59.306Z,2.00
2022-10-16T04:38:46.048Z,2.27
2022-10-16T04:41:32.917Z,2.20
2022-10-16T04:44:19.701Z,1.80
2022-10-16T04:47:06.720Z,2.27
2022-10-16T04:49:54.749Z,2.17
2022-10-16T04:52:41.617Z,2.90
2022-10-16T04:55:28.592Z,1.93
2022-10-16T04:58:15.511Z,2.40
2022-10-16T05:01:02.401Z,2.23
2022-10-16T05:03:49.126Z,2.10
2022-10-16T05:06:37.198Z,2.07
2022-10-16T05:09:24.186Z,1.90
2022-10-16T05:12:10.743Z,2.30
2022-10-16T05:14:59.760Z,2.00
2022-10-16T05:17:46.746Z,2.20
2022-10-16T05:20:33.168Z,2.00
2022-10-16T05:23:21.235Z,2.47
2022-10-16T05:26:08.260Z,2.40
2022-10-16T05:28:55.161Z,2.57
2022-10-16T05:31:41.832Z,2.20
2022-10-16T05:34:28.612Z,3.03
2022-10-16T05:37:15.482Z,2.40
2022-10-16T05:40:03.907Z,2.40
2022-10-16T05:42:50.449Z,2.20
2022-10-16T05:45:37.153Z,2.30
2022-10-16T05:48:24.511Z,2.10
2022-10-16T05:51:15.552Z,2.40
2022-10-16T05:54:02.176Z,2.20
2022-10-16T05:56:50.747Z,2.13
2022-10-16T05:59:37.871Z,1.97
2022-10-16T06:02:24.276Z,2.03
2022-10-16T06:05:11.039Z,2.40
2022-10-16T06:07:57.901Z,2.43
2022-10-16T06:10:45.833Z,2.03
2022-10-16T06:13:33.975Z,2.20
2022-10-16T06:16:20.825Z,1.90
2022-10-16T06:19:09.333Z,2.17
2022-10-16T06:21:56.002Z,2.00
2022-10-16T06:24:42.694Z,2.33
2022-10-16T06:27:29.687Z,2.30
2022-10-16T06:30:17.666Z,2.00
2022-10-16T06:33:04.325Z,2.07
2022-10-16T06:35:51.273Z,2.20
2022-10-16T06:38:38.650Z,2.57
2022-10-16T06:41:25.751Z,2.37
2022-10-16T06:44:12.336Z,2.80
2022-10-16T06:47:00.465Z,2.73
2022-10-16T06:49:51.774Z,2.70
2022-10-16T06:52:41.333Z,2.30
2022-10-16T06:55:27.997Z,2.60
2022-10-16T06:58:14.929Z,2.47
2022-10-16T07:01:01.826Z,2.90
2022-10-16T07:03:50.209Z,2.50
2022-10-16T07:06:36.941Z,2.03
2022-10-16T07:09:23.532Z,2.90
2022-10-16T07:12:10.261Z,2.00
2022-10-16T07:14:57.331Z,2.50
2022-10-16T07:17:43.954Z,2.20
2022-10-16T07:20:32.147Z,2.17
2022-10-16T07:23:18.877Z,2.17
2022-10-16T07:26:06.445Z,2.40
2022-10-16T07:28:53.632Z,2.20
2022-10-16T07:31:40.938Z,2.20
2022-10-16T07:34:28.562Z,2.10
2022-10-16T07:37:16.685Z,1.97
2022-10-16T07:40:03.466Z,2.10
2022-10-16T07:42:50.213Z,2.20
2022-10-16T07:45:36.953Z,1.97
2022-10-16T07:48:26.246Z,2.20
2022-10-16T07:51:14.393Z,2.30
2022-10-16T07:54:02.712Z,2.50
2022-10-16T07:56:49.515Z,2.37
2022-10-16T07:59:36.263Z,2.43
2022-10-16T08:02:23.006Z,2.30
2022-10-16T08:05:10.636Z,2.03
2022-10-16T08:07:58.219Z,2.33
2022-10-16T08:10:47.192Z,1.90
2022-10-16T08:13:34.508Z,1.90
2022-10-16T08:16:21.339Z,2.10
2022-10-16T08:19:08.034Z,2.10
2022-10-16T08:21:54.865Z,1.97
2022-10-16T08:24:41.999Z,1.87
2022-10-16T08:27:34.505Z,2.00
2022-10-16T08:30:22.871Z,2.00
2022-10-16T08:33:09.245Z,1.80
2022-10-16T08:35:56.300Z,2.53
2022-10-16T08:38:42.897Z,2.20
2022-10-16T08:41:44.267Z,1.90
2022-10-16T08:44:45.813Z,2.17
2022-10-16T08:47:45.408Z,2.10
2022-10-16T08:50:34.272Z,1.97
2022-10-16T08:53:27.767Z,1.70
2022-10-16T08:56:14.564Z,2.33
2022-10-16T08:59:03.005Z,1.87
2022-10-16T09:01:53.906Z,1.87
2022-10-16T09:04:56.981Z,2.20
2022-10-16T09:07:55.934Z,2.20
2022-10-16T09:10:56.634Z,2.30
2022-10-16T09:13:52.076Z,2.30
2022-10-16T09:16:53.557Z,2.10
2022-10-16T09:19:48.729Z,3.00
2022-10-16T09:22:35.754Z,1.70
2022-10-16T09:25:31.694Z,1.67
2022-10-16T09:28:19.550Z,2.07
2022-10-16T09:31:06.158Z,1.80
2022-10-16T09:33:57.374Z,2.10
2022-10-16T09:36:47.141Z,2.13
2022-10-16T09:39:46.535Z,1.97
2022-10-16T09:42:37.770Z,2.40
2022-10-16T09:45:26.123Z,2.27
2022-10-16T09:48:14.865Z,2.30
2022-10-16T09:51:03.860Z,2.40
2022-10-16T09:53:57.576Z,2.60
2022-10-16T09:56:46.708Z,1.93
2022-10-16T09:59:34.251Z,2.40
2022-10-16T10:02:32.352Z,2.47
2022-10-16T10:05:24.597Z,2.30
2022-10-16T10:08:20.621Z,2.53
2022-10-16T10:11:12.609Z,2.43
2022-10-16T10:14:06.855Z,2.20
2022-10-16T10:16:55.151Z,2.20
2022-10-16T10:19:46.877Z,2.10
2022-10-16T10:22:43.086Z,2.20
2022-10-16T10:25:50.610Z,2.20
2022-10-16T10:28:54.960Z,1.60
2022-10-16T10:32:05.503Z,2.63
2022-10-16T10:35:06.771Z,1.97
2022-10-16T10:38:18.204Z,1.87
2022-10-16T10:41:22.534Z,1.93
2022-10-16T10:44:23.979Z,2.03
2022-10-16T10:47:21.473Z,2.10
2022-10-16T10:50:19.514Z,1.90
2022-10-16T10:53:20.111Z,2.10
2022-10-16T10:56:17.750Z,1.97
2022-10-16T10:59:19.066Z,1.57
2022-10-16T11:02:16.638Z,1.70
2022-10-16T11:05:35.323Z,1.80
2022-10-16T11:08:28.644Z,1.67
2022-10-16T11:11:21.219Z,1.50
2022-10-16T11:14:16.787Z,1.77
2022-10-16T11:17:09.988Z,1.57
2022-10-16T11:20:01.296Z,1.50
2022-10-16T11:22:52.346Z,1.33
2022-10-16T11:25:41.653Z,1.57
2022-10-16T11:28:34.910Z,1.47
2022-10-16T11:31:30.201Z,1.50
2022-10-16T11:34:23.645Z,1.50
2022-10-16T11:37:16.130Z,1.57
2022-10-16T11:40:18.479Z,1.33
2022-10-16T11:43:16.165Z,1.40
2022-10-16T11:46:11.764Z,1.40
2022-10-16T11:49:10.338Z,1.50
2022-10-16T11:52:05.153Z,1.27
2022-10-16T11:54:58.190Z,1.10
2022-10-16T11:57:49.732Z,1.27
2022-10-16T12:00:42.764Z,1.10
2022-10-16T12:03:33.991Z,1.60
2022-10-16T12:06:36.221Z,1.20
2022-10-16T12:09:27.657Z,1.30
2022-10-16T12:12:30.248Z,0.83
2022-10-16T12:15:46.995Z,1.13
2022-10-16T12:18:33.296Z,1.17
2022-10-16T12:21:21.044Z,1.13
2022-10-16T12:24:24.484Z,1.00
2022-10-16T12:27:29.301Z,1.10
2022-10-16T12:30:24.014Z,1.00
2022-10-16T12:33:23.471Z,0.90
2022-10-16T12:36:16.451Z,1.10
2022-10-16T12:39:04.259Z,1.10
2022-10-16T12:42:03.130Z,1.20
2022-10-16T12:44:49.917Z,1.03
2022-10-16T12:47:51.351Z,0.90
2022-10-16T12:50:40.426Z,1.00
2022-10-16T12:53:29.304Z,1.00
2022-10-16T12:56:25.551Z,1.10
2022-10-16T12:59:22.609Z,0.80
2022-10-16T13:02:32.028Z,1.00
2022-10-16T13:05:34.501Z,1.00
2022-10-16T13:08:37.315Z,0.80
2022-10-16T13:11:37.632Z,0.90
2022-10-16T13:14:46.199Z,1.00
2022-10-16T13:17:39.994Z,1.07
2022-10-16T13:20:34.023Z,0.80
2022-10-16T13:23:30.088Z,0.83
2022-10-16T13:26:25.766Z,0.67
2022-10-16T13:29:12.875Z,1.00
2022-10-16T13:32:02.715Z,0.70
2022-10-16T13:34:51.702Z,0.63
2022-10-16T13:37:38.308Z,0.60
2022-10-16T13:40:26.674Z,0.63
2022-10-16T13:43:14.007Z,0.70
2022-10-16T13:46:04.027Z,0.70
2022-10-16T13:49:00.624Z,0.93
2022-10-16T13:51:57.233Z,0.83
2022-10-16T13:54:43.768Z,0.70
2022-10-16T13:57:30.974Z,0.80
2022-10-16T14:00:23.324Z,0.67
2022-10-16T14:03:17.261Z,0.73
2022-10-16T14:06:10.019Z,0.70
2022-10-16T14:09:03.400Z,0.63
2022-10-16T14:11:53.357Z,0.70
2022-10-16T14:14:44.193Z,0.70
2022-10-16T14:17:33.345Z,0.70
2022-10-16T14:20:21.057Z,0.70
2022-10-16T14:23:23.942Z,0.70
2022-10-16T14:26:19.291Z,0.77
2022-10-16T14:29:13.807Z,0.70
2022-10-16T14:32:02.021Z,0.77
2022-10-16T14:34:55.609Z,0.70
2022-10-16T14:37:42.310Z,0.60
2022-10-16T14:40:32.688Z,0.70
2022-10-16T14:43:24.560Z,0.70
2022-10-16T14:46:27.058Z,0.60
2022-10-16T14:49:20.948Z,0.50
2022-10-16T14:52:12.310Z,0.63
2022-10-16T14:54:58.845Z,0.80
2022-10-16T14:57:47.870Z,0.67
2022-10-16T15:00:34.694Z,0.53
2022-10-16T15:03:21.575Z,0.60
2022-10-16T15:06:13.293Z,0.80
2022-10-16T15:08:59.986Z,0.70
2022-10-16T15:11:47.636Z,0.60
2022-10-16T15:14:35.898Z,0.70
2022-10-16T15:17:22.679Z,0.67
2022-10-16T15:20:09.804Z,0.60
2022-10-16T15:22:56.703Z,0.60
2022-10-16T15:25:46.745Z,0.70
2022-10-16T15:28:33.365Z,2.33
2022-10-16T15:31:22.490Z,0.70
2022-10-16T15:34:11.199Z,0.90
2022-10-16T15:36:58.973Z,0.90
2022-10-16T15:39:45.827Z,0.93
2022-10-16T15:42:32.454Z,0.70
2022-10-16T15:45:20.206Z,1.10
2022-10-16T15:48:08.524Z,0.90
2022-10-16T15:50:55.349Z,0.80
2022-10-16T15:53:42.103Z,1.07
2022-10-16T15:56:31.659Z,1.00
2022-10-16T15:59:18.042Z,0.97
2022-10-16T16:02:04.959Z,0.93
2022-10-16T16:04:53.177Z,1.00
2022-10-16T16:08:02.691Z,0.80
2022-10-16T16:10:59.943Z,1.37
2022-10-16T16:13:47.682Z,1.20
2022-10-16T16:16:38.855Z,1.13
2022-10-16T16:19:26.013Z,0.87
2022-10-16T16:22:14.760Z,1.13
2022-10-16T16:25:01.653Z,1.00
2022-10-16T16:27:49.286Z,0.90
2022-10-16T16:30:37.016Z,0.87
2022-10-16T16:33:23.487Z,1.17
2022-10-16T16:36:15.713Z,0.70
2022-10-16T16:39:09.652Z,1.13
2022-10-16T16:41:59.444Z,1.00
2022-10-16T16:44:46.830Z,1.10
2022-10-16T16:47:33.688Z,1.73
2022-10-16T16:50:21.196Z,1.00
2022-10-16T16:53:08.830Z,1.00
2022-10-16T16:56:01.079Z,1.10
2022-10-16T16:58:53.278Z,1.27
2022-10-16T17:01:40.380Z,1.10
2022-10-16T17:04:27.249Z,1.33
2022-10-16T17:07:13.795Z,1.33
2022-10-16T17:10:00.657Z,1.20
2022-10-16T17:12:48.894Z,1.60
2022-10-16T17:15:35.607Z,1.10
2022-10-16T17:18:23.630Z,1.30
2022-10-16T17:21:11.515Z,1.20
2022-10-16T17:23:58.719Z,1.37
2022-10-16T17:26:49.311Z,1.40
2022-10-16T17:29:37.344Z,1.50
2022-10-16T17:32:24.171Z,1.30
2022-10-16T17:35:12.449Z,1.43
2022-10-16T17:38:00.458Z,1.33
2022-10-16T17:40:47.263Z,1.47
2022-10-16T17:43:34.073Z,1.40
2022-10-16T17:46:24.342Z,1.57
2022-10-16T17:49:13.369Z,1.50
2022-10-16T17:52:03.030Z,1.40
2022-10-16T17:54:52.086Z,1.43
2022-10-16T17:57:38.638Z,1.50
2022-10-16T18:00:25.340Z,1.50
2022-10-16T18:03:13.338Z,1.40
2022-10-16T18:06:04.542Z,1.70
2022-10-16T18:08:51.432Z,2.23
2022-10-16T18:11:38.912Z,1.70
2022-10-16T18:14:25.268Z,1.80
2022-10-16T18:17:13.472Z,1.97
2022-10-16T18:20:01.438Z,1.80
2022-10-16T18:22:48.230Z,2.00
2022-10-16T18:25:34.983Z,2.10
2022-10-16T18:28:21.999Z,2.30
2022-10-16T18:31:12.335Z,2.07
2022-10-16T18:33:59.416Z,1.73
2022-10-16T18:36:50.189Z,2.30
2022-10-16T18:39:41.799Z,2.10
2022-10-16T18:42:29.372Z,2.30
2022-10-16T18:45:16.256Z,2.47
2022-10-16T18:48:04.427Z,2.40
2022-10-16T18:50:55.637Z,2.60
2022-10-16T18:53:45.318Z,2.30
2022-10-16T18:56:33.089Z,2.63
2022-10-16T18:59:42.817Z,2.40
2022-10-16T19:06:59.205Z,2.90
2022-10-16T19:10:07.435Z,2.80
2022-10-16T19:12:56.902Z,2.60
2022-10-16T19:15:57.943Z,3.30
2022-10-16T19:18:46.888Z,3.07
2022-10-16T19:21:51.528Z,3.33
2022-10-16T19:24:39.975Z,2.93
2022-10-16T19:27:29.095Z,2.83
2022-10-16T19:30:17.791Z,2.80
2022-10-16T19:33:08.449Z,4.97
2022-10-16T19:35:57.039Z,2.87
2022-10-16T19:38:47.943Z,2.83
2022-10-16T19:41:39.086Z,3.17
2022-10-16T19:44:31.094Z,2.53
2022-10-16T19:47:20.889Z,3.93
2022-10-16T19:50:19.305Z,2.60
2022-10-16T19:53:12.222Z,3.40
2022-10-16T19:56:03.876Z,3.53
2022-10-16T19:58:51.828Z,3.37
2022-10-16T20:01:40.518Z,3.13
2022-10-16T20:04:26.827Z,3.53
2022-10-16T20:07:13.823Z,3.37
2022-10-16T20:10:00.525Z,3.53
2022-10-16T20:17:39.425Z,3.40
2022-10-16T20:20:26.171Z,3.77
2022-10-16T20:23:13.464Z,3.23
2022-10-16T20:26:04.086Z,3.37
2022-10-16T20:28:51.928Z,3.57
2022-10-16T20:31:38.981Z,3.20
2022-10-16T20:34:27.213Z,4.13
2022-10-16T20:37:13.934Z,3.50
2022-10-16T20:40:00.694Z,3.43
2022-10-16T20:42:48.776Z,3.57
2022-10-16T20:45:51.080Z,3.50
2022-10-16T20:48:45.226Z,4.00
2022-10-16T20:52:02.590Z,3.20
2022-10-16T20:54:55.960Z,3.80
2022-10-16T21:00:47.952Z,4.33
2022-10-16T21:03:36.976Z,3.33
2022-10-16T21:06:24.816Z,3.40
2022-10-16T21:09:13.343Z,3.30
2022-10-16T21:12:00.199Z,3.27
2022-10-16T21:15:16.391Z,3.00
2022-10-16T21:18:10.041Z,3.30
2022-10-16T21:20:57.899Z,3.17
2022-10-16T21:23:45.747Z,3.20
2022-10-16T21:26:34.227Z,3.00
2022-10-16T21:29:21.770Z,3.37
2022-10-16T21:32:09.100Z,3.30
2022-10-16T21:34:56.165Z,3.00
2022-10-16T21:37:43.437Z,2.87
2022-10-16T21:40:32.375Z,3.10
2022-10-16T21:43:30.125Z,3.70
2022-10-16T21:46:19.161Z,3.77
2022-10-16T21:49:08.579Z,3.60
2022-10-16T21:51:55.891Z,4.40
2022-10-16T21:54:48.219Z,5.00
2022-10-16T21:57:42.941Z,4.23
2022-10-16T22:00:34.149Z,4.20
2022-10-16T22:11:22.282Z,3.63
2022-10-16T22:15:12.527Z,3.93
2022-10-16T22:22:37.016Z,3.90
2022-10-16T22:28:56.582Z,3.63
2022-10-16T22:31:47.014Z,4.27
2022-10-16T22:34:41.538Z,3.37
2022-10-16T22:41:36.214Z,3.97
2022-10-16T22:44:33.488Z,3.87
2022-10-16T22:48:11.790Z,3.67
2022-10-16T22:54:50.536Z,3.20
2022-10-16T22:57:37.760Z,3.50
2022-10-16T23:00:35.860Z,3.73
2022-10-16T23:16:17.468Z,3.93
2022-10-16T23:22:18.436Z,2.90
2022-10-16T23:25:32.324Z,3.83
2022-10-16T23:37:32.874Z,3.60
2022-10-16T23:45:30.819Z,3.43
2022-10-16T23:48:41.802Z,3.43
2022-10-16T23:52:01.105Z,3.60
2022-10-16T23:55:13.587Z,3.10
2022-10-16T23:58:28.322Z,3.03
